Sunrise, Wyoming
Current Conditions -  °F | °C
As of 5:55 AM on Friday 19 Dec 2014 (Local Time) from KGUR Reporting Station
Clear Clear  
Wind Chill: 17°   Ceiling: Unl
Heat Index: 17°   Visibility: 10mi
Dew Point: 13°   Wind: 0mph
Humidity: 84%   Direction: NA
Pressure: 30.04"   Gusts: NA
Location:  42.3847°N, 104.796°W
Report Text: KGUR 191255Z AUTO 00000KT 10SM CLR M08/M11 A3004 RMK AO2 T10851107 PWINO
Loading
Personal Weather Stations






























Interactive Weather Map New forecast layout! Learn more

10-Day Weather Forecast

Advertisements
Track Severe Weather on mobile